Saturday, October 25, 2014, 9:46 PM EDT

KLNS, Lancaster Airport

Location: Lititz, PA, United States Lat: 40.117
Local Time: 9:46 PM EDT ( 1:46 GMT) Lon: -76.3
Time Zone: US/Eastern Elev: 403 ft

Show me the last for .
Show Decoded

2014-10-25 20:53 METAR KLNS 260053Z 26003KT 10SM CLR 15/06 A2968 RMK AO2 SLP048 T01500061 =
2014-10-25 19:53 METAR KLNS 252353Z 24006KT 10SM CLR 16/06 A2969 RMK AO2 SLP053 T01610061 10200
                 20161 55008 =
2014-10-25 18:53 METAR KLNS 252253Z 24007KT 10SM BKN065 18/07 A2968 RMK AO2 SLP049 T01780067 =
2014-10-25 17:53 METAR KLNS 252153Z 23008KT 10SM BKN065 19/07 A2968 RMK AO2 SLP051 T01890067 =
2014-10-25 16:53 METAR KLNS 252053Z 26014KT 10SM CLR 19/07 A2971 RMK AO2 SLP060 T01940067 56027 =
2014-10-25 15:53 METAR KLNS 251953Z 24012KT 10SM CLR 19/06 A2973 RMK AO2 SLP068 T01940061 =
2014-10-25 14:53 METAR KLNS 251853Z 25012KT 10SM CLR 19/06 A2976 RMK AO2 SLP077 T01940056 =
2014-10-25 13:53 METAR KLNS 251753Z 26013KT 10SM CLR 19/07 A2979 RMK AO2 SLP087 T01890067 10189
                 20056 58035 =
2014-10-25 12:53 METAR KLNS 251653Z 26014G19KT 10SM CLR 18/06 A2983 RMK AO2 SLP099 T01780061 =
2014-10-25 11:53 METAR KLNS 251553Z 29011KT 10SM CLR 17/06 A2987 RMK AO2 SLP114 T01720056 =
2014-10-25 10:53 METAR KLNS 251453Z 28011KT 10SM CLR 15/06 A2989 RMK AO2 SLP122 T01500056 58009 =
2014-10-25 09:53 METAR KLNS 251353Z 28006KT 10SM CLR 13/06 A2992 RMK AO2 SLP132 T01280061 =
2014-10-25 07:53 METAR KLNS 251153Z 29004KT 9SM CLR 06/03 A2992 RMK AO2 SLP133 T00610028 10083
                 20056 56000 =
2014-10-25 06:53 METAR KLNS 251053Z 29005KT 10SM CLR 07/03 A2992 RMK AO2 SLP134 T00670028 =
2014-10-25 05:53 METAR KLNS 250953Z AUTO 26005KT 10SM CLR 07/03 A2992 RMK AO2 SLP131 T00720033 =
2014-10-25 04:53 METAR KLNS 250853Z AUTO 29005KT 10SM CLR 07/03 A2992 RMK AO2 SLP132 T00670033
                 58002 =
2014-10-25 03:53 METAR KLNS 250753Z AUTO 27005KT 10SM CLR 08/03 A2993 RMK AO2 SLP134 T00780033 =
2014-10-25 02:53 METAR KLNS 250653Z AUTO 27004KT 10SM CLR 08/03 A2993 RMK AO2 SLP133 T00780033 =
2014-10-25 01:53 METAR KLNS 250553Z AUTO 27007KT 10SM CLR 08/03 A2993 RMK AO2 SLP134 T00780033
                 10133 20067 51004 =
2014-10-25 00:53 METAR KLNS 250453Z AUTO 26005KT 10SM CLR 09/03 A2992 RMK AO2 SLP132 T00940033
                 401890072 =
2014-10-24 23:53 METAR KLNS 250353Z AUTO 28007KT 10SM CLR 09/03 A2992 RMK AO2 SLP133 T00890033 =
2014-10-24 21:53 METAR KLNS 250153Z 28008KT 10SM CLR 12/03 A2991 RMK AO2 SLP126 T01170033 =

Support USWX by starting your Amazon purchase here.